Time;durP1;ratioP1;P1;durP2;ratioP2;P2;SDS_P1;SDS_P2;PMS_P1;PMS_P2;Temp;Humidity;BMP_temperature;BMP_pressure;BME280_temperature;BME280_humidity;BME280_pressure;Samples;Min_cycle;Max_cycle;Signal;HPM_P1;HPM_P2
2022/05/14 00:02:04;;;;;;;6.23;3.10;;;17.10;62.50;;;;;;5053719;28;20988;-70
2022/05/14 00:04:31;;;;;;;9.70;2.97;;;17.00;62.60;;;;;;5054200;28;20446;-70
2022/05/14 00:06:58;;;;;;;6.17;2.77;;;17.00;62.70;;;;;;5054073;28;20472;-70
2022/05/14 00:09:25;;;;;;;4.07;2.57;;;17.00;63.00;;;;;;5053955;28;20450;-70
2022/05/14 00:14:37;;;;;;;4.50;2.60;;;16.90;63.10;;;;;;5053929;28;20520;-70
2022/05/14 00:17:04;;;;;;;9.70;3.80;;;16.80;63.30;;;;;;5053922;28;20441;-70
2022/05/14 00:19:31;;;;;;;5.43;3.17;;;16.80;63.50;;;;;;5053851;28;20481;-70
2022/05/14 00:21:58;;;;;;;5.93;2.63;;;16.70;63.40;;;;;;5053739;28;20473;-69
2022/05/14 00:24:25;;;;;;;6.63;2.23;;;16.70;63.50;;;;;;5053584;28;20492;-70
2022/05/14 00:26:52;;;;;;;5.37;3.20;;;16.60;63.80;;;;;;5053688;28;20453;-70
2022/05/14 00:29:19;;;;;;;5.57;2.97;;;16.60;64.00;;;;;;5053605;28;20448;-69
2022/05/14 00:31:47;;;;;;;4.90;2.70;;;16.60;64.10;;;;;;5053465;28;20477;-70
2022/05/14 00:34:15;;;;;;;5.10;2.77;;;16.50;64.40;;;;;;5053451;28;20485;-69
2022/05/14 00:36:43;;;;;;;8.20;2.83;;;16.50;64.60;;;;;;5053180;28;21010;-69
2022/05/14 00:39:09;;;;;;;8.90;2.90;;;16.50;64.60;;;;;;5053510;28;20450;-70
2022/05/14 00:41:38;;;;;;;13.80;3.50;;;16.50;65.00;;;;;;5053322;28;20472;-69
2022/05/14 00:44:05;;;;;;;8.50;3.37;;;16.50;64.90;;;;;;5053323;28;20825;-70
2022/05/14 00:46:42;;;;;;;8.20;3.50;;;16.40;65.10;;;;;;5053380;28;20449;-69
2022/05/14 00:49:11;;;;;;;7.90;3.10;;;16.40;65.10;;;;;;5053233;28;20860;-69
2022/05/14 00:51:44;;;;;;;7.73;3.17;;;16.30;65.10;;;;;;5053276;28;20477;-69
2022/05/14 00:54:13;;;;;;;5.77;2.87;;;16.30;65.40;;;;;;5053490;28;20497;-70
2022/05/14 00:56:43;;;;;;;6.00;2.50;;;16.30;65.70;;;;;;5053422;28;20449;-70
2022/05/14 00:59:13;;;;;;;6.67;2.77;;;16.40;66.00;;;;;;5053138;28;20511;-69
2022/05/14 01:01:41;;;;;;;6.43;3.43;;;16.40;65.90;;;;;;5053240;28;20527;-69
2022/05/14 01:04:10;;;;;;;5.47;3.33;;;16.40;66.10;;;;;;5053197;28;20434;-70
2022/05/14 01:06:39;;;;;;;10.17;3.83;;;16.40;66.20;;;;;;5053093;28;20450;-70
2022/05/14 01:09:07;;;;;;;5.50;3.20;;;16.40;66.20;;;;;;5053191;28;20445;-69
2022/05/14 01:11:37;;;;;;;8.10;3.17;;;16.30;66.10;;;;;;5052974;28;20505;-69
2022/05/14 01:14:04;;;;;;;9.30;3.00;;;16.20;66.60;;;;;;5053118;28;20481;-69
2022/05/14 01:16:31;;;;;;;11.60;3.47;;;16.20;66.60;;;;;;5052984;28;20442;-69
2022/05/14 01:18:59;;;;;;;9.67;3.80;;;16.10;66.70;;;;;;5052850;28;20945;-69
2022/05/14 01:21:33;;;;;;;6.90;3.40;;;16.00;66.80;;;;;;5052956;28;20485;-69
2022/05/14 01:26:55;;;;;;;9.10;3.63;;;15.90;66.50;;;;;;5053113;28;20483;-69
2022/05/14 01:29:23;;;;;;;5.60;3.13;;;15.90;66.40;;;;;;5053063;28;20453;-69
2022/05/14 01:31:52;;;;;;;5.13;2.63;;;15.80;66.60;;;;;;5052967;28;20469;-69
2022/05/14 01:34:21;;;;;;;7.53;3.20;;;15.70;66.50;;;;;;5053013;28;20481;-69
2022/05/14 01:36:48;;;;;;;9.03;3.30;;;15.70;66.70;;;;;;5052688;28;20976;-69
2022/05/14 01:39:15;;;;;;;10.60;3.90;;;15.70;67.10;;;;;;5052697;28;20815;-69
2022/05/14 01:41:43;;;;;;;7.57;4.00;;;15.60;67.80;;;;;;5052800;28;20886;-69
2022/05/14 01:44:11;;;;;;;7.67;3.03;;;15.60;68.50;;;;;;5052501;28;20975;-69
2022/05/14 01:46:37;;;;;;;5.73;3.40;;;15.60;68.90;;;;;;5052796;28;20442;-69
2022/05/14 01:49:04;;;;;;;11.67;3.90;;;15.60;69.00;;;;;;5052800;28;20457;-69
2022/05/14 01:51:31;;;;;;;7.97;3.50;;;15.50;69.00;;;;;;5052528;28;20470;-69
2022/05/14 01:53:58;;;;;;;8.60;3.73;;;15.50;69.70;;;;;;5052821;28;20477;-69
2022/05/14 01:56:25;;;;;;;9.63;3.57;;;15.50;70.00;;;;;;5052529;28;20453;-69
2022/05/14 01:58:52;;;;;;;8.73;3.33;;;15.50;70.00;;;;;;5054455;28;20454;-69
2022/05/14 02:01:22;;;;;;;10.40;3.53;;;15.50;70.00;;;;;;5056441;28;20539;-69
2022/05/14 02:03:53;;;;;;;4.97;2.83;;;15.40;69.70;;;;;;5056099;28;20797;-69
2022/05/14 02:06:21;;;;;;;13.40;4.70;;;15.40;69.80;;;;;;5056104;28;21039;-69
2022/05/14 02:08:48;;;;;;;10.90;3.37;;;15.40;69.80;;;;;;5056445;28;20460;-69
2022/05/14 02:11:16;;;;;;;9.60;3.97;;;15.40;70.10;;;;;;5056213;28;20461;-69
2022/05/14 02:13:45;;;;;;;19.40;3.63;;;15.40;70.10;;;;;;5055804;28;20460;-69
2022/05/14 02:16:12;;;;;;;12.73;3.47;;;15.30;70.10;;;;;;5056406;28;20454;-69
2022/05/14 02:18:40;;;;;;;9.13;4.00;;;15.30;70.40;;;;;;5056173;28;20449;-69
2022/05/14 02:21:08;;;;;;;4.83;2.73;;;15.20;70.40;;;;;;5056000;28;20485;-69
2022/05/14 02:23:38;;;;;;;7.60;3.53;;;15.10;70.50;;;;;;5055907;28;20457;-69
2022/05/14 02:26:05;;;;;;;7.40;3.17;;;15.20;70.80;;;;;;5055846;28;20453;-69
2022/05/14 02:28:32;;;;;;;9.37;3.67;;;15.10;70.70;;;;;;5055505;28;20971;-69
2022/05/14 02:30:59;;;;;;;7.53;2.73;;;15.10;70.80;;;;;;5055863;28;20466;-69
2022/05/14 02:33:26;;;;;;;8.73;3.27;;;15.10;70.80;;;;;;5055822;28;20453;-69
2022/05/14 02:35:55;;;;;;;6.40;3.20;;;15.10;70.60;;;;;;5055851;28;20482;-69
2022/05/14 02:38:21;;;;;;;9.10;2.77;;;15.10;70.90;;;;;;5055795;28;20564;-70
2022/05/14 02:40:49;;;;;;;6.20;3.07;;;15.10;70.80;;;;;;5056093;28;20445;-69
2022/05/14 02:43:16;;;;;;;8.60;3.33;;;15.00;70.50;;;;;;5055428;28;20454;-69
2022/05/14 02:45:43;;;;;;;4.40;2.50;;;15.00;70.50;;;;;;5055607;28;20500;-69
2022/05/14 02:48:11;;;;;;;11.60;3.50;;;15.00;70.20;;;;;;5055457;28;20446;-69
2022/05/14 02:50:38;;;;;;;5.40;2.60;;;15.00;70.10;;;;;;5055392;28;20438;-69
2022/05/14 02:53:07;;;;;;;5.57;2.80;;;15.00;70.00;;;;;;5055448;28;20818;-70
2022/05/14 02:55:34;;;;;;;5.40;2.90;;;15.00;70.30;;;;;;5055285;28;20481;-69
2022/05/14 02:58:01;;;;;;;26.97;4.10;;;15.00;70.60;;;;;;5055456;28;20441;-69
2022/05/14 03:00:28;;;;;;;10.77;3.00;;;15.00;70.60;;;;;;5054995;28;20853;-70
2022/05/14 03:02:55;;;;;;;8.40;3.43;;;15.00;70.60;;;;;;5055291;28;20473;-69
2022/05/14 03:05:23;;;;;;;5.90;2.87;;;15.00;70.60;;;;;;5055235;28;20449;-69
2022/05/14 03:07:51;;;;;;;10.40;2.57;;;15.00;70.60;;;;;;5054911;28;20956;-69
2022/05/14 03:10:19;;;;;;;9.73;3.53;;;15.00;70.50;;;;;;5054680;28;20454;-69
2022/05/14 03:12:46;;;;;;;3.73;2.20;;;15.00;70.60;;;;;;5054816;28;20836;-69
2022/05/14 03:15:14;;;;;;;4.97;2.90;;;15.10;70.70;;;;;;5054983;28;20484;-69
2022/05/14 03:17:41;;;;;;;3.20;2.50;;;15.10;70.50;;;;;;5054825;28;20844;-69
2022/05/14 03:20:11;;;;;;;7.30;2.57;;;15.10;70.20;;;;;;5055224;28;20457;-69
2022/05/14 03:22:40;;;;;;;4.33;2.23;;;15.10;69.70;;;;;;5055155;28;20968;-70
2022/05/14 03:25:08;;;;;;;10.07;3.00;;;15.10;69.10;;;;;;5055153;28;20461;-69
2022/05/14 03:27:36;;;;;;;6.50;2.40;;;15.10;69.00;;;;;;5055611;28;20860;-69
2022/05/14 03:30:04;;;;;;;6.30;3.20;;;15.10;68.80;;;;;;5054917;28;20489;-69
2022/05/14 03:32:31;;;;;;;8.50;2.90;;;15.00;68.70;;;;;;5054694;28;20473;-69
2022/05/14 03:35:00;;;;;;;6.00;2.47;;;14.90;69.00;;;;;;5054778;28;20485;-69
2022/05/14 03:37:26;;;;;;;8.43;4.30;;;14.90;69.00;;;;;;5054737;28;20460;-69
2022/05/14 03:39:53;;;;;;;6.23;2.50;;;14.90;68.90;;;;;;5054711;28;20442;-69
2022/05/14 03:42:20;;;;;;;6.00;2.70;;;14.80;69.20;;;;;;5054708;28;20473;-69
2022/05/14 03:44:48;;;;;;;7.13;2.73;;;14.80;69.30;;;;;;5054201;28;20454;-69
2022/05/14 03:47:15;;;;;;;8.23;2.70;;;14.70;69.10;;;;;;5054447;28;20494;-69
2022/05/14 03:49:42;;;;;;;5.40;2.40;;;14.70;69.50;;;;;;5054865;28;20956;-69
2022/05/14 03:52:10;;;;;;;9.87;2.83;;;14.60;69.50;;;;;;5054515;28;20477;-69
2022/05/14 03:54:38;;;;;;;5.33;2.67;;;14.60;69.60;;;;;;5054366;28;20516;-70
2022/05/14 03:57:06;;;;;;;4.10;2.37;;;14.60;69.70;;;;;;5054263;28;20493;-69
2022/05/14 03:59:33;;;;;;;6.73;2.50;;;14.50;69.80;;;;;;5054257;28;20438;-69
2022/05/14 04:02:01;;;;;;;6.93;3.13;;;14.40;69.90;;;;;;5054130;28;20481;-69
2022/05/14 04:04:28;;;;;;;5.47;2.70;;;14.40;70.00;;;;;;5054068;28;20820;-69
2022/05/14 04:06:55;;;;;;;7.30;3.00;;;14.30;70.10;;;;;;5053991;28;20454;-69
2022/05/14 04:09:22;;;;;;;4.97;2.60;;;14.30;70.20;;;;;;5053834;28;20464;-69
2022/05/14 04:11:49;;;;;;;7.40;2.47;;;14.20;70.40;;;;;;5053703;28;20985;-69
2022/05/14 04:14:16;;;;;;;4.40;2.80;;;14.10;70.60;;;;;;5053930;28;20446;-69
2022/05/14 04:16:43;;;;;;;7.33;2.70;;;14.10;71.10;;;;;;5053766;28;20485;-69
2022/05/14 04:19:12;;;;;;;4.03;2.53;;;14.10;71.40;;;;;;5053977;28;20457;-69
2022/05/14 04:21:39;;;;;;;8.57;2.90;;;14.10;71.50;;;;;;5052973;28;20482;-69
2022/05/14 04:24:07;;;;;;;8.43;2.50;;;14.00;71.40;;;;;;5053768;28;20464;-69
2022/05/14 04:26:34;;;;;;;5.27;2.60;;;14.10;71.60;;;;;;5053287;28;20887;-69
2022/05/14 04:29:01;;;;;;;2.23;2.07;;;14.00;71.70;;;;;;5053728;28;20444;-69
2022/05/14 04:31:27;;;;;;;4.60;2.33;;;14.00;71.70;;;;;;5053718;28;20834;-69
2022/05/14 04:33:54;;;;;;;8.57;2.70;;;14.00;71.80;;;;;;5053665;28;20454;-69
2022/05/14 04:36:22;;;;;;;5.40;2.80;;;14.00;72.00;;;;;;5053593;28;20485;-69
2022/05/14 04:38:49;;;;;;;9.57;3.07;;;14.00;72.10;;;;;;5053559;28;20807;-69
2022/05/14 04:41:16;;;;;;;7.50;2.57;;;14.00;72.40;;;;;;5053535;28;20473;-69
2022/05/14 04:43:42;;;;;;;10.47;3.33;;;13.90;72.70;;;;;;5052979;28;20458;-69
2022/05/14 04:46:10;;;;;;;8.97;2.47;;;13.90;73.20;;;;;;5053378;28;20449;-69
2022/05/14 04:48:38;;;;;;;10.50;3.10;;;13.80;73.70;;;;;;5053135;28;20975;-69
2022/05/14 04:51:05;;;;;;;4.67;2.90;;;13.80;74.30;;;;;;5053283;28;20473;-69
2022/05/14 04:53:33;;;;;;;5.87;2.70;;;13.80;74.70;;;;;;5053391;28;20694;-69
2022/05/14 04:56:00;;;;;;;14.47;2.67;;;13.80;75.00;;;;;;5053230;28;20485;-69
2022/05/14 04:58:27;;;;;;;7.87;2.90;;;13.80;74.90;;;;;;5053519;28;20449;-69
2022/05/14 05:00:54;;;;;;;10.73;2.67;;;13.90;74.90;;;;;;5053128;28;20445;-69
2022/05/14 05:03:20;;;;;;;5.87;2.40;;;13.90;74.90;;;;;;5053274;28;20564;-69
2022/05/14 05:05:49;;;;;;;6.60;2.40;;;13.90;74.60;;;;;;5053156;28;20953;-69
2022/05/14 05:08:16;;;;;;;5.70;2.43;;;14.00;74.90;;;;;;5053295;28;20205;-69
2022/05/14 05:10:46;;;;;;;12.33;2.77;;;14.00;75.40;;;;;;5053135;28;20441;-69
2022/05/14 05:13:15;;;;;;;7.47;2.73;;;14.10;75.10;;;;;;5053098;28;20449;-69
2022/05/14 05:15:41;;;;;;;10.47;2.87;;;14.10;74.90;;;;;;5053069;28;20485;-69
2022/05/14 05:18:10;;;;;;;8.50;2.40;;;14.10;74.60;;;;;;5052860;28;20943;-69
2022/05/14 05:20:38;;;;;;;13.13;3.27;;;14.10;75.00;;;;;;5052954;28;20477;-68
2022/05/14 05:23:05;;;;;;;4.33;2.97;;;14.00;75.30;;;;;;5052857;28;20457;-69
2022/05/14 05:25:35;;;;;;;7.47;2.63;;;13.90;75.70;;;;;;5053076;28;20976;-68
2022/05/14 05:28:03;;;;;;;5.57;2.87;;;13.90;75.90;;;;;;5053034;28;20450;-69
2022/05/14 05:30:31;;;;;;;4.50;2.33;;;13.80;76.40;;;;;;5053068;28;20464;-69
2022/05/14 05:32:58;;;;;;;3.53;2.53;;;13.80;76.40;;;;;;5054911;28;20847;-69
2022/05/14 05:35:26;;;;;;;3.97;2.27;;;13.90;76.90;;;;;;5056943;28;20486;-69
2022/05/14 05:37:53;;;;;;;5.77;2.77;;;13.90;77.20;;;;;;5057049;28;20516;-69
2022/05/14 05:40:20;;;;;;;7.40;2.77;;;13.90;77.50;;;;;;5056873;28;20460;-69
2022/05/14 05:42:47;;;;;;;9.73;2.77;;;13.90;77.70;;;;;;5056502;28;20976;-69
2022/05/14 05:45:17;;;;;;;7.00;2.37;;;14.00;78.40;;;;;;5056245;28;20959;-69
2022/05/14 05:47:44;;;;;;;2.73;2.30;;;14.00;78.10;;;;;;5057448;28;20437;-69
2022/05/14 05:50:11;;;;;;;8.03;3.40;;;14.10;78.80;;;;;;5056466;28;20454;-69
2022/05/14 05:52:37;;;;;;;6.20;2.80;;;14.10;77.70;;;;;;5056454;28;20492;-69
2022/05/14 05:57:49;;;;;;;7.10;2.57;;;14.20;77.70;;;;;;5056347;28;20401;-69
2022/05/14 06:00:20;;;;;;;7.60;2.93;;;14.20;77.10;;;;;;5056424;28;20454;-70
2022/05/14 06:02:48;;;;;;;9.80;3.33;;;14.30;78.30;;;;;;5056294;28;20465;-69
2022/05/14 06:05:15;;;;;;;7.00;3.40;;;14.40;78.00;;;;;;5055941;28;20905;-69
2022/05/14 06:07:42;;;;;;;9.60;3.37;;;14.40;77.10;;;;;;5056217;28;20460;-69
2022/05/14 06:10:12;;;;;;;11.40;3.10;;;14.40;77.10;;;;;;5056284;28;20453;-69
2022/05/14 06:12:39;;;;;;;5.27;3.97;;;14.40;77.10;;;;;;5055979;28;21054;-69
2022/05/14 06:15:08;;;;;;;7.77;2.47;;;14.40;78.20;;;;;;5056171;28;20460;-69
2022/05/14 06:17:36;;;;;;;8.63;3.57;;;14.50;77.30;;;;;;5056946;28;20484;-69
2022/05/14 06:20:04;;;;;;;9.33;3.20;;;14.50;77.90;;;;;;5055841;28;20968;-69
2022/05/14 06:22:31;;;;;;;6.60;2.97;;;14.60;77.40;;;;;;5056051;28;20476;-70
2022/05/14 06:24:58;;;;;;;6.30;3.47;;;14.70;77.00;;;;;;5056082;28;20454;-68
2022/05/14 06:27:25;;;;;;;6.07;4.17;;;14.70;77.00;;;;;;5055969;28;20457;-67
2022/05/14 06:29:52;;;;;;;8.53;3.20;;;14.80;77.30;;;;;;5055764;28;20445;-68
2022/05/14 06:32:19;;;;;;;5.30;3.50;;;14.80;76.80;;;;;;5055823;28;20908;-67
2022/05/14 06:34:47;;;;;;;9.63;4.10;;;15.00;76.30;;;;;;5055773;28;20445;-67
2022/05/14 06:37:13;;;;;;;7.63;3.80;;;15.10;76.30;;;;;;5055708;28;20492;-67
2022/05/14 06:39:40;;;;;;;8.27;3.90;;;15.20;75.80;;;;;;5055616;28;20453;-67
2022/05/14 06:42:07;;;;;;;10.27;3.80;;;15.30;76.30;;;;;;5055626;28;20522;-68
2022/05/14 06:44:34;;;;;;;6.00;3.93;;;15.40;75.30;;;;;;5054336;28;20457;-67
2022/05/14 06:47:01;;;;;;;5.47;3.03;;;15.50;75.20;;;;;;5055438;28;20449;-68
2022/05/14 06:49:28;;;;;;;5.90;3.37;;;15.60;75.20;;;;;;5055518;28;20456;-67
2022/05/14 06:51:58;;;;;;;6.73;3.73;;;15.80;74.60;;;;;;5055171;28;20499;-67
2022/05/14 06:54:25;;;;;;;7.00;3.83;;;15.90;73.90;;;;;;5055150;28;20905;-67
2022/05/14 06:56:52;;;;;;;10.43;4.80;;;16.10;73.60;;;;;;5055275;28;20539;-67
2022/05/14 06:59:19;;;;;;;10.03;3.97;;;16.20;72.80;;;;;;5055373;28;20454;-67
2022/05/14 07:01:47;;;;;;;14.77;3.83;;;16.40;72.80;;;;;;5055151;28;20476;-68
2022/05/14 07:07:05;;;;;;;9.13;4.77;;;16.60;71.20;;;;;;5055228;28;20413;-67
2022/05/14 07:09:33;;;;;;;7.37;4.40;;;16.70;71.10;;;;;;5055307;28;20425;-68
2022/05/14 07:12:03;;;;;;;10.47;4.77;;;16.90;70.60;;;;;;5054995;28;20488;-68
2022/05/14 07:14:31;;;;;;;9.20;4.80;;;17.00;70.30;;;;;;5054822;28;20852;-68
2022/05/14 07:16:58;;;;;;;9.87;4.73;;;17.20;69.50;;;;;;5055015;28;20489;-67
2022/05/14 07:19:25;;;;;;;8.67;4.73;;;17.30;68.70;;;;;;5054642;28;20941;-68
2022/05/14 07:21:54;;;;;;;8.07;4.80;;;17.40;69.40;;;;;;5055009;28;20497;-72
2022/05/14 07:24:24;;;;;;;7.40;4.10;;;17.50;68.60;;;;;;5055026;28;20453;-70
2022/05/14 07:26:52;;;;;;;7.63;4.20;;;17.60;68.60;;;;;;5055365;28;20437;-71
2022/05/14 07:29:20;;;;;;;9.10;4.60;;;17.70;68.10;;;;;;5054734;28;20454;-69
2022/05/14 07:31:48;;;;;;;10.23;4.93;;;17.90;66.70;;;;;;5054758;28;20473;-70
2022/05/14 07:34:16;;;;;;;9.70;5.20;;;18.10;67.30;;;;;;5055324;28;20820;-70
2022/05/14 07:36:49;;;;;;;7.50;5.10;;;18.30;67.00;;;;;;5054772;28;20480;-69
2022/05/14 07:39:18;;;;;;;15.27;5.57;;;18.50;66.20;;;;;;5054488;28;20910;-70
2022/05/14 07:41:50;;;;;;;11.33;5.13;;;18.60;63.80;;;;;;5054593;28;20477;-70
2022/05/14 07:44:19;;;;;;;11.30;5.30;;;18.80;64.00;;;;;;5054405;28;20461;-69
2022/05/14 07:46:49;;;;;;;10.77;4.50;;;19.00;62.60;;;;;;5054448;28;20441;-69
2022/05/14 07:49:17;;;;;;;11.57;5.17;;;19.20;61.00;;;;;;5054256;28;21011;-70
2022/05/14 07:51:44;;;;;;;11.50;5.03;;;19.30;61.70;;;;;;5054365;28;20501;-69
2022/05/14 07:54:11;;;;;;;12.77;5.80;;;19.40;62.00;;;;;;5054449;28;20449;-70
2022/05/14 07:56:39;;;;;;;8.17;5.10;;;19.40;61.40;;;;;;5054010;28;21038;-71
2022/05/14 07:59:07;;;;;;;12.47;4.40;;;19.50;61.80;;;;;;5054477;28;20464;-70
2022/05/14 08:01:34;;;;;;;9.60;5.10;;;19.50;61.90;;;;;;5054259;28;20473;-70
2022/05/14 08:04:01;;;;;;;13.70;5.23;;;19.70;60.90;;;;;;5054099;28;20450;-70
2022/05/14 08:06:28;;;;;;;11.33;5.60;;;20.00;62.60;;;;;;5054063;28;20923;-70
2022/05/14 08:08:55;;;;;;;11.27;5.10;;;20.20;62.20;;;;;;5053882;28;20465;-71
2022/05/14 08:11:22;;;;;;;8.80;3.80;;;20.30;59.70;;;;;;5054214;28;20472;-71
2022/05/14 08:13:50;;;;;;;12.23;4.10;;;20.40;58.90;;;;;;5054090;28;20438;-71
2022/05/14 08:16:19;;;;;;;12.87;5.20;;;20.60;58.60;;;;;;5053740;28;20487;-71
2022/05/14 08:18:45;;;;;;;15.00;5.23;;;20.80;57.90;;;;;;5054034;28;20449;-71
2022/05/14 08:26:41;;;;;;;14.23;3.83;;;21.10;56.50;;;;;;5053947;28;20409;-71
2022/05/14 08:29:08;;;;;;;9.10;4.30;;;21.50;55.80;;;;;;5053650;28;20972;-71
2022/05/14 08:31:36;;;;;;;9.30;3.80;;;21.70;54.90;;;;;;5053944;28;20476;-71
2022/05/14 08:34:03;;;;;;;9.20;3.70;;;22.00;53.90;;;;;;5053785;28;20446;-71
2022/05/14 08:36:30;;;;;;;12.47;4.67;;;22.30;54.30;;;;;;5053703;28;20477;-71
2022/05/14 08:38:57;;;;;;;12.10;4.97;;;22.50;53.30;;;;;;5053660;28;20454;-71
2022/05/14 08:41:24;;;;;;;6.83;3.20;;;22.60;52.10;;;;;;5053694;28;20483;-71
2022/05/14 08:43:53;;;;;;;12.33;3.90;;;22.80;51.90;;;;;;5053217;28;20979;-71
2022/05/14 08:46:23;;;;;;;8.33;3.83;;;23.10;51.10;;;;;;5053477;28;20920;-71
2022/05/14 08:48:54;;;;;;;13.23;4.10;;;23.40;50.60;;;;;;5053788;28;20453;-71
2022/05/14 08:51:25;;;;;;;15.20;5.33;;;23.70;49.90;;;;;;5053253;28;21042;-72
2022/05/14 08:53:52;;;;;;;8.63;3.37;;;23.90;49.00;;;;;;5053030;28;20937;-72
2022/05/14 08:56:40;;;;;;;14.60;4.50;;;24.10;48.40;;;;;;5053217;28;20523;-72
2022/05/14 08:59:31;;;;;;;9.10;4.17;;;24.40;48.40;;;;;;5053488;28;20481;-72
2022/05/14 09:02:01;;;;;;;11.17;3.33;;;24.50;49.00;;;;;;5053196;28;20995;-72
2022/05/14 09:04:29;;;;;;;9.43;3.60;;;24.70;48.70;;;;;;5053617;28;20455;-72
2022/05/14 09:06:57;;;;;;;10.27;3.53;;;24.90;48.20;;;;;;5054647;28;20449;-72
2022/05/14 09:09:24;;;;;;;11.90;4.13;;;24.90;47.30;;;;;;5060292;28;20449;-72
2022/05/14 09:11:55;;;;;;;11.67;4.77;;;25.00;47.80;;;;;;5059711;28;21000;-72
2022/05/14 09:14:28;;;;;;;13.57;4.83;;;24.80;46.70;;;;;;5060273;28;20438;-71
2022/05/14 09:17:05;;;;;;;7.70;3.50;;;24.80;47.50;;;;;;5059722;28;20823;-71
2022/05/14 09:19:37;;;;;;;10.37;4.60;;;24.90;48.30;;;;;;5059778;28;20441;-71
2022/05/14 09:22:13;;;;;;;16.13;4.60;;;25.10;48.50;;;;;;5060014;28;20516;-71
2022/05/14 09:24:43;;;;;;;15.83;5.30;;;25.20;49.30;;;;;;5060146;28;20448;-71
2022/05/14 09:27:15;;;;;;;16.30;5.20;;;25.30;47.90;;;;;;5060026;28;20526;-72
2022/05/14 09:29:46;;;;;;;13.47;5.17;;;25.30;46.50;;;;;;5060066;28;20481;-72
2022/05/14 09:32:30;;;;;;;10.90;4.30;;;25.40;46.50;;;;;;5059570;28;20996;-72
2022/05/14 09:35:11;;;;;;;12.17;4.30;;;25.50;47.60;;;;;;5059429;28;20917;-72
2022/05/14 09:37:39;;;;;;;10.27;4.93;;;25.40;47.30;;;;;;5059392;28;21006;-72
2022/05/14 09:40:13;;;;;;;9.80;4.27;;;25.40;46.80;;;;;;5059858;28;20442;-72
2022/05/14 09:42:43;;;;;;;10.30;3.80;;;25.40;46.00;;;;;;5059758;28;20477;-71
2022/05/14 09:45:29;;;;;;;14.57;3.90;;;25.60;45.20;;;;;;5059421;28;20843;-72
2022/05/14 09:47:56;;;;;;;13.13;3.93;;;25.90;45.00;;;;;;5059213;28;20461;-72
2022/05/14 09:50:34;;;;;;;11.23;4.50;;;26.10;45.00;;;;;;5059823;28;20429;-72
2022/05/14 09:53:03;;;;;;;11.67;4.90;;;26.00;44.00;;;;;;5059628;28;20461;-72
2022/05/14 09:55:51;;;;;;;9.57;3.00;;;25.90;44.50;;;;;;5060532;28;20783;-72
2022/05/14 09:58:26;;;;;;;8.80;3.30;;;25.90;45.50;;;;;;5060049;28;20543;-72
2022/05/14 10:01:00;;;;;;;9.00;3.93;;;26.20;44.50;;;;;;5059676;28;20491;-72
2022/05/14 10:03:41;;;;;;;11.57;4.33;;;26.60;43.00;;;;;;5059435;28;20468;-72
2022/05/14 10:06:22;;;;;;;9.40;3.77;;;27.10;41.30;;;;;;5059509;28;20440;-72
2022/05/14 10:09:03;;;;;;;15.00;4.20;;;27.50;40.90;;;;;;5059915;28;20444;-72
2022/05/14 10:11:33;;;;;;;12.13;3.47;;;27.70;41.40;;;;;;5059069;28;20983;-72
2022/05/14 10:14:15;;;;;;;13.73;3.93;;;27.80;40.80;;;;;;5059716;28;20458;-72
2022/05/14 10:16:55;;;;;;;8.13;3.90;;;28.30;40.00;;;;;;5059345;28;20469;-72
2022/05/14 10:19:36;;;;;;;10.23;4.50;;;28.70;38.80;;;;;;5056157;28;20952;-70
2022/05/14 10:22:18;;;;;;;7.10;3.23;;;29.00;37.80;;;;;;5055990;28;20535;-72
2022/05/14 10:27:56;;;;;;;10.17;3.63;;;29.60;37.00;;;;;;5056235;28;20421;-72
2022/05/14 10:30:28;;;;;;;7.93;3.10;;;29.90;35.60;;;;;;5055788;28;20807;-71
2022/05/14 10:33:02;;;;;;;15.33;3.83;;;30.10;35.00;;;;;;5055959;28;20934;-71
2022/05/14 10:35:34;;;;;;;11.30;3.77;;;30.10;33.90;;;;;;5055970;28;20481;-71
2022/05/14 10:38:07;;;;;;;10.70;3.43;;;30.10;34.00;;;;;;5055668;28;21043;-71
2022/05/14 10:40:38;;;;;;;8.40;3.60;;;30.40;34.20;;;;;;5055971;28;20433;-70
2022/05/14 10:43:29;;;;;;;8.27;4.23;;;31.10;33.10;;;;;;5055674;28;20517;-70
2022/05/14 10:45:58;;;;;;;7.30;3.47;;;31.60;31.40;;;;;;5055829;28;20788;-70
2022/05/14 10:48:37;;;;;;;8.23;3.13;;;32.00;30.90;;;;;;5055807;28;20430;-70
2022/05/14 10:51:06;;;;;;;7.43;3.97;;;32.60;30.30;;;;;;5055714;28;20476;-70
2022/05/14 10:53:39;;;;;;;6.93;3.50;;;32.90;28.70;;;;;;5055775;28;20841;-70
2022/05/14 10:56:10;;;;;;;11.03;4.30;;;33.00;29.00;;;;;;5055844;28;20421;-70
2022/05/14 10:58:54;;;;;;;9.33;4.00;;;32.70;29.30;;;;;;5055552;28;20480;-70
2022/05/14 11:01:30;;;;;;;9.57;3.50;;;32.30;30.00;;;;;;5055633;28;20476;-72
2022/05/14 11:03:59;;;;;;;9.90;3.57;;;31.70;29.70;;;;;;5055106;28;20924;-72
2022/05/14 11:06:31;;;;;;;9.90;3.57;;;31.90;30.60;;;;;;5055366;28;20452;-71
2022/05/14 11:09:00;;;;;;;7.50;3.87;;;32.40;30.20;;;;;;5055427;28;20437;-71
2022/05/14 11:11:29;;;;;;;10.10;3.93;;;32.60;28.80;;;;;;5055296;28;20544;-71
2022/05/14 11:14:03;;;;;;;7.80;2.73;;;32.10;29.80;;;;;;5056035;28;20465;-71
2022/05/14 11:16:43;;;;;;;8.03;3.30;;;32.10;30.20;;;;;;5055146;28;20437;-71
2022/05/14 11:19:11;;;;;;;6.00;3.60;;;32.80;30.80;;;;;;5055285;28;20438;-71
2022/05/14 11:21:41;;;;;;;9.07;3.93;;;33.40;28.50;;;;;;5055031;28;20465;-71
2022/05/14 11:24:13;;;;;;;9.03;4.07;;;34.20;28.40;;;;;;5055294;28;20509;-71
2022/05/14 11:26:50;;;;;;;6.07;3.80;;;34.70;27.60;;;;;;5055190;28;20429;-71
2022/05/14 11:29:20;;;;;;;7.53;3.50;;;34.90;26.50;;;;;;5054791;28;20512;-71
2022/05/14 11:31:58;;;;;;;6.30;3.40;;;35.10;25.90;;;;;;5054599;28;20468;-71
2022/05/14 11:34:26;;;;;;;8.77;3.23;;;35.40;26.00;;;;;;5055064;28;20437;-71
2022/05/14 11:36:56;;;;;;;6.23;4.10;;;35.90;25.30;;;;;;5054833;28;20460;-71
2022/05/14 11:39:30;;;;;;;7.57;3.60;;;35.70;24.50;;;;;;5054918;28;20433;-71
2022/05/14 11:42:23;;;;;;;5.60;3.67;;;35.60;24.30;;;;;;5054775;28;20468;-71
2022/05/14 11:44:55;;;;;;;5.60;3.40;;;35.60;24.80;;;;;;5051990;28;20481;-71
2022/05/14 11:47:51;;;;;;;9.00;3.90;;;35.60;24.60;;;;;;5054736;28;20441;-71
2022/05/14 11:50:23;;;;;;;9.10;4.00;;;36.00;24.80;;;;;;5052225;28;20461;-71
2022/05/14 11:53:02;;;;;;;9.93;4.07;;;36.30;24.40;;;;;;5055175;28;20472;-71
2022/05/14 11:55:35;;;;;;;8.93;3.83;;;36.60;23.70;;;;;;5054546;28;20437;-71
2022/05/14 11:58:06;;;;;;;4.70;2.97;;;36.90;23.30;;;;;;5054424;28;20523;-71
2022/05/14 12:00:35;;;;;;;5.13;2.97;;;37.20;23.00;;;;;;5054441;28;20187;-72
2022/05/14 12:03:10;;;;;;;11.43;4.10;;;37.80;22.90;;;;;;5054379;28;20222;-72
2022/05/14 12:05:41;;;;;;;8.57;3.88;;;38.20;22.30;;;;;;5054122;28;20677;-72
2022/05/14 12:08:39;;;;;;;9.23;4.00;;;38.20;22.70;;;;;;5054229;28;20187;-71
2022/05/14 12:11:21;;;;;;;9.67;4.37;;;37.90;21.80;;;;;;5033181;28;20233;-72
2022/05/14 12:13:57;;;;;;;9.55;4.20;;;38.10;21.90;;;;;;5054087;28;20190;-72
2022/05/14 12:16:30;;;;;;;7.45;3.88;;;38.30;22.20;;;;;;5053873;28;20556;-72
2022/05/14 12:18:57;;;;;;;8.52;3.80;;;38.60;22.00;;;;;;5053971;28;20242;-72
2022/05/14 12:21:25;;;;;;;7.38;3.28;;;38.80;21.40;;;;;;5053901;28;20291;-72
2022/05/14 12:23:51;;;;;;;6.43;3.42;;;39.00;21.50;;;;;;5054005;28;20230;-72
2022/05/14 12:26:24;;;;;;;9.35;3.72;;;39.50;21.70;;;;;;5053919;28;20209;-72
2022/05/14 12:28:52;;;;;;;8.07;3.70;;;39.90;21.30;;;;;;5054056;28;20194;-72
2022/05/14 12:34:11;;;;;;;4.55;3.20;;;40.70;19.70;;;;;;5053964;28;20574;-72
2022/05/14 12:36:42;;;;;;;8.40;3.80;;;40.80;19.50;;;;;;5053842;28;20203;-72
2022/05/14 12:39:12;;;;;;;7.40;3.92;;;40.30;19.00;;;;;;5053699;28;20206;-71
2022/05/14 12:41:41;;;;;;;6.53;2.72;;;40.00;19.20;;;;;;5052975;28;20224;-71
2022/05/14 12:44:12;;;;;;;10.95;3.38;;;40.20;19.90;;;;;;5053285;28;20218;-71
2022/05/14 12:46:42;;;;;;;10.02;3.80;;;40.60;19.90;;;;;;5053617;28;20224;-71
2022/05/14 12:49:17;;;;;;;6.13;2.97;;;40.10;19.60;;;;;;5053664;28;20570;-70
2022/05/14 12:51:49;;;;;;;7.78;3.50;;;39.00;20.40;;;;;;5053522;28;20233;-71
2022/05/14 12:54:22;;;;;;;6.93;3.38;;;38.70;21.30;;;;;;5053467;28;20186;-70
2022/05/14 12:56:52;;;;;;;3.55;2.70;;;39.00;21.10;;;;;;5053872;28;20187;-70
2022/05/14 12:59:20;;;;;;;9.73;3.58;;;39.20;20.40;;;;;;5053487;28;20716;-74
2022/05/14 13:01:49;;;;;;;8.48;3.60;;;39.20;21.20;;;;;;5054285;28;20241;-73
2022/05/14 13:04:18;;;;;;;8.27;3.70;;;38.20;21.30;;;;;;5053781;28;20229;-73
2022/05/14 13:06:46;;;;;;;5.77;3.10;;;37.80;22.30;;;;;;5053334;28;20207;-73
2022/05/14 13:09:22;;;;;;;10.48;3.85;;;38.00;22.50;;;;;;5053344;28;20683;-72
2022/05/14 13:11:52;;;;;;;7.25;3.25;;;38.70;21.60;;;;;;5053649;28;20218;-72
2022/05/14 13:14:23;;;;;;;9.50;3.40;;;39.70;20.10;;;;;;5053480;28;20186;-72
2022/05/14 13:16:55;;;;;;;8.77;4.50;;;40.50;19.50;;;;;;5053265;28;20684;-72
2022/05/14 13:19:29;;;;;;;6.85;3.28;;;40.60;19.30;;;;;;5053694;28;20685;-73